createdAt,value
2023-01-26T00:02:21.322Z,102647.88
2023-01-26T00:04:51.067Z,102640.05
2023-01-26T00:07:20.857Z,102637.00
2023-01-26T00:09:50.616Z,102634.34
2023-01-26T00:12:20.412Z,102636.94
2023-01-26T00:14:50.472Z,102635.02
2023-01-26T00:17:23.143Z,102636.23
2023-01-26T00:19:59.210Z,102630.09
2023-01-26T00:22:29.018Z,102623.17
2023-01-26T00:24:58.799Z,102622.63
2023-01-26T00:27:28.645Z,102620.87
2023-01-26T00:29:58.755Z,102621.48
2023-01-26T00:32:28.497Z,102616.09
2023-01-26T00:34:58.288Z,102613.70
2023-01-26T00:37:28.115Z,102611.77
2023-01-26T00:39:58.122Z,102612.01
2023-01-26T00:42:28.171Z,102601.04
2023-01-26T00:44:59.276Z,102601.04
2023-01-26T00:47:29.062Z,102598.44
2023-01-26T00:49:59.502Z,102595.98
2023-01-26T00:52:31.121Z,102595.98
2023-01-26T00:55:00.914Z,102591.39
2023-01-26T00:57:30.682Z,102587.36
2023-01-26T01:00:00.855Z,102586.33
2023-01-26T01:02:30.603Z,102584.40
2023-01-26T01:05:00.408Z,102580.86
2023-01-26T01:07:30.176Z,102587.84
2023-01-26T01:10:00.414Z,102590.99
2023-01-26T01:12:30.162Z,102583.94
2023-01-26T01:15:00.250Z,102581.91
2023-01-26T01:17:30.026Z,102585.33
2023-01-26T01:19:59.799Z,102584.60
2023-01-26T01:22:29.493Z,102581.81
2023-01-26T01:24:59.228Z,102587.20
2023-01-26T01:27:29.473Z,102586.80
2023-01-26T01:29:59.188Z,102592.27
2023-01-26T01:32:28.964Z,102591.59
2023-01-26T01:34:59.208Z,102590.83
2023-01-26T01:37:30.927Z,102584.41
2023-01-26T01:40:00.802Z,102577.02
2023-01-26T01:42:30.634Z,102579.52
2023-01-26T01:45:29.425Z,102580.58
2023-01-26T01:48:02.272Z,102572.42
2023-01-26T01:50:35.411Z,102571.06
2023-01-26T01:53:06.843Z,102570.30
2023-01-26T01:55:37.354Z,102573.29
2023-01-26T01:58:09.314Z,102575.70
2023-01-26T02:00:39.123Z,102578.19
2023-01-26T02:03:15.140Z,102578.19
2023-01-26T02:06:17.226Z,102574.16
2023-01-26T02:08:50.528Z,102568.41
2023-01-26T02:11:35.080Z,102563.43
2023-01-26T02:14:10.004Z,102555.27
2023-01-26T02:16:42.361Z,102554.70
2023-01-26T02:19:15.211Z,102551.73
2023-01-26T02:21:48.337Z,102547.89
2023-01-26T02:24:29.878Z,102545.20
2023-01-26T02:26:59.895Z,102539.45
2023-01-26T02:29:30.864Z,102542.52
2023-01-26T02:32:00.653Z,102541.11
2023-01-26T02:34:30.524Z,102541.11
2023-01-26T02:37:02.394Z,102542.90
2023-01-26T02:39:50.459Z,102549.99
2023-01-26T02:42:38.052Z,102542.81
2023-01-26T02:45:12.691Z,102540.50
2023-01-26T02:47:44.915Z,102545.30
2023-01-26T02:50:16.133Z,102547.12
2023-01-26T02:52:46.202Z,102543.09
2023-01-26T02:55:22.916Z,102545.11
2023-01-26T02:57:55.128Z,102535.81
2023-01-26T03:00:31.003Z,102535.99
2023-01-26T03:03:02.571Z,102529.77
2023-01-26T03:05:32.717Z,102543.39
2023-01-26T03:08:04.203Z,102546.84
2023-01-26T03:10:36.011Z,102545.39
2023-01-26T03:13:05.953Z,102547.59
2023-01-26T03:15:37.538Z,102538.50
2023-01-26T03:18:29.483Z,102538.50
2023-01-26T03:21:19.300Z,102536.64
2023-01-26T03:24:07.234Z,102545.28
2023-01-26T03:26:55.095Z,102541.09
2023-01-26T03:31:56.195Z,102540.02
2023-01-26T03:34:26.208Z,102537.92
2023-01-26T03:36:56.202Z,102533.95
2023-01-26T03:39:43.929Z,102533.11
2023-01-26T03:42:31.688Z,102535.03
2023-01-26T03:45:19.902Z,102537.33
2023-01-26T03:48:08.251Z,102538.85
2023-01-26T03:50:55.634Z,102536.58
2023-01-26T03:53:43.254Z,102535.56
2023-01-26T03:56:20.783Z,102530.78
2023-01-26T03:58:54.572Z,102524.55
2023-01-26T04:01:29.178Z,102525.53
2023-01-26T04:04:18.131Z,102526.69
2023-01-26T04:07:08.605Z,102525.53
2023-01-26T04:09:40.165Z,102525.23
2023-01-26T04:12:14.067Z,102532.16
2023-01-26T04:15:05.787Z,102536.44
2023-01-26T04:17:53.888Z,102532.20
2023-01-26T04:20:41.064Z,102524.95
2023-01-26T04:23:19.137Z,102534.80
2023-01-26T04:25:50.453Z,102530.83
2023-01-26T04:28:20.759Z,102536.33
2023-01-26T04:30:51.716Z,102532.32
2023-01-26T04:33:21.887Z,102531.54
2023-01-26T04:35:51.398Z,102536.42
2023-01-26T04:38:22.134Z,102531.20
2023-01-26T04:40:55.272Z,102528.23
2023-01-26T04:43:25.564Z,102531.59
2023-01-26T04:46:04.234Z,102529.73
2023-01-26T04:48:34.253Z,102524.12
2023-01-26T04:51:13.005Z,102517.70
2023-01-26T04:53:43.326Z,102517.70
2023-01-26T04:56:28.783Z,102520.38
2023-01-26T04:59:05.367Z,102522.66
2023-01-26T05:01:35.916Z,102520.02
2023-01-26T05:04:09.599Z,102526.52
2023-01-26T05:06:42.164Z,102517.82
2023-01-26T05:09:12.351Z,102517.82
2023-01-26T05:11:44.218Z,102518.55
2023-01-26T05:14:30.744Z,102516.40
2023-01-26T05:17:04.891Z,102505.52
2023-01-26T05:19:51.665Z,102505.52
2023-01-26T05:22:41.810Z,102503.80
2023-01-26T05:25:24.684Z,102513.69
2023-01-26T05:27:56.227Z,102507.94
2023-01-26T05:30:26.548Z,102508.95
2023-01-26T05:33:04.970Z,102513.23
2023-01-26T05:35:35.704Z,102512.27
2023-01-26T05:38:08.846Z,102506.22
2023-01-26T05:40:38.733Z,102508.42
2023-01-26T05:43:11.079Z,102508.05
2023-01-26T05:45:43.019Z,102512.83
2023-01-26T05:48:13.866Z,102515.17
2023-01-26T05:50:43.861Z,102508.39
2023-01-26T05:53:15.297Z,102515.98
2023-01-26T05:55:45.427Z,102508.92
2023-01-26T05:58:16.749Z,102514.95
2023-01-26T06:00:46.586Z,102506.89
2023-01-26T06:03:18.140Z,102508.91
2023-01-26T06:05:54.442Z,102512.48
2023-01-26T06:08:25.929Z,102512.75
2023-01-26T06:11:02.696Z,102514.66
2023-01-26T06:13:49.346Z,102519.46
2023-01-26T06:16:21.008Z,102519.46
2023-01-26T06:18:51.474Z,102525.26
2023-01-26T06:21:21.959Z,102524.33
2023-01-26T06:23:53.721Z,102525.15
2023-01-26T06:26:24.500Z,102525.43
2023-01-26T06:28:55.842Z,102520.87
2023-01-26T06:31:28.729Z,102531.13
2023-01-26T06:33:59.818Z,102526.20
2023-01-26T06:36:29.463Z,102512.03
2023-01-26T06:39:00.931Z,102525.22
2023-01-26T06:41:31.183Z,102529.44
2023-01-26T06:44:01.003Z,102526.89
2023-01-26T06:46:31.602Z,102525.33
2023-01-26T06:49:03.688Z,102533.88
2023-01-26T06:51:40.763Z,102531.63
2023-01-26T06:54:15.075Z,102535.89
2023-01-26T06:57:04.586Z,102534.02
2023-01-26T07:02:23.865Z,102542.39
2023-01-26T07:04:53.996Z,102544.57
2023-01-26T07:07:24.038Z,102549.46
2023-01-26T07:09:54.132Z,102555.44
2023-01-26T07:12:24.042Z,102555.33
2023-01-26T07:14:54.107Z,102548.50
2023-01-26T07:17:23.958Z,102545.30
2023-01-26T07:19:53.820Z,102546.80
2023-01-26T07:22:23.293Z,102554.35
2023-01-26T07:24:53.918Z,102546.02
2023-01-26T07:27:23.705Z,102555.84
2023-01-26T07:29:53.477Z,102552.18
2023-01-26T07:32:23.385Z,102545.92
2023-01-26T07:34:53.482Z,102543.48
2023-01-26T07:37:23.212Z,102547.71
2023-01-26T07:39:52.984Z,102546.25
2023-01-26T07:42:22.783Z,102554.81
2023-01-26T07:44:57.278Z,102557.16
2023-01-26T07:47:27.226Z,102558.84
2023-01-26T07:49:57.084Z,102562.92
2023-01-26T07:52:26.840Z,102563.08
2023-01-26T07:54:57.025Z,102570.50
2023-01-26T07:57:26.884Z,102572.29
2023-01-26T07:59:57.050Z,102571.40
2023-01-26T08:02:27.042Z,102571.54
2023-01-26T08:04:57.082Z,102579.25
2023-01-26T08:07:27.401Z,102572.56
2023-01-26T08:09:58.974Z,102576.00
2023-01-26T08:12:29.084Z,102573.12
2023-01-26T08:14:59.182Z,102572.66
2023-01-26T08:17:34.482Z,102571.95
2023-01-26T08:20:04.477Z,102567.75
2023-01-26T08:22:34.635Z,102576.48
2023-01-26T08:25:04.813Z,102578.05
2023-01-26T08:27:34.883Z,102582.83
2023-01-26T08:30:06.709Z,102583.39
2023-01-26T08:32:36.480Z,102582.80
2023-01-26T08:35:08.470Z,102582.80
2023-01-26T08:37:38.923Z,102577.78
2023-01-26T08:40:09.551Z,102578.05
2023-01-26T08:42:39.783Z,102583.17
2023-01-26T08:45:09.800Z,102580.59
2023-01-26T08:47:39.948Z,102578.09
2023-01-26T08:50:11.258Z,102577.27
2023-01-26T08:52:41.453Z,102581.98
2023-01-26T08:55:11.358Z,102591.73
2023-01-26T08:57:41.703Z,102592.26
2023-01-26T09:00:14.199Z,102588.12
2023-01-26T09:02:44.349Z,102590.31
2023-01-26T09:05:13.923Z,102592.28
2023-01-26T09:07:44.562Z,102587.67
2023-01-26T09:10:14.719Z,102591.14
2023-01-26T09:12:45.062Z,102588.48
2023-01-26T09:15:14.535Z,102586.60
2023-01-26T09:17:44.385Z,102591.52
2023-01-26T09:20:14.070Z,102589.83
2023-01-26T09:22:44.107Z,102594.65
2023-01-26T09:25:13.942Z,102592.21
2023-01-26T09:27:44.558Z,102598.03
2023-01-26T09:30:14.746Z,102597.42
2023-01-26T09:32:45.210Z,102598.83
2023-01-26T09:35:15.416Z,102599.16
2023-01-26T09:37:45.773Z,102603.18
2023-01-26T09:40:19.810Z,102604.22
2023-01-26T09:42:58.519Z,102607.43
2023-01-26T09:45:34.125Z,102609.81
2023-01-26T09:48:29.704Z,102603.70
2023-01-26T09:51:02.537Z,102602.91
2023-01-26T09:53:47.367Z,102602.50
2023-01-26T09:56:21.016Z,102592.42
2023-01-26T09:58:57.303Z,102599.64
2023-01-26T10:01:27.697Z,102598.12
2023-01-26T10:04:30.047Z,102594.51
2023-01-26T10:07:01.837Z,102594.95
2023-01-26T10:09:53.577Z,102600.41
2023-01-26T10:12:35.322Z,102595.51
2023-01-26T10:15:21.880Z,102598.45
2023-01-26T10:17:54.859Z,102595.94
2023-01-26T10:20:36.149Z,102597.30
2023-01-26T10:23:17.231Z,102587.78
2023-01-26T10:25:51.655Z,102593.44
2023-01-26T10:28:35.138Z,102591.48
2023-01-26T10:31:08.351Z,102594.70
2023-01-26T10:33:39.122Z,102599.05
2023-01-26T10:36:11.240Z,102603.35
2023-01-26T10:38:43.101Z,102600.33
2023-01-26T10:41:24.885Z,102602.25
2023-01-26T10:44:00.826Z,102612.31
2023-01-26T10:46:34.125Z,102611.98
2023-01-26T10:49:13.073Z,102596.11
2023-01-26T10:51:46.349Z,102606.51
2023-01-26T10:54:22.508Z,102600.80
2023-01-26T10:57:00.417Z,102594.09
2023-01-26T10:59:43.573Z,102597.02
2023-01-26T11:02:19.317Z,102599.41
2023-01-26T11:05:11.918Z,102600.25
2023-01-26T11:07:44.271Z,102591.94
2023-01-26T11:10:33.294Z,102587.62
2023-01-26T11:13:19.250Z,102595.14
2023-01-26T11:16:03.367Z,102589.49
2023-01-26T11:19:00.562Z,102585.80
2023-01-26T11:21:33.708Z,102589.73
2023-01-26T11:24:12.711Z,102590.36
2023-01-26T11:27:07.951Z,102595.86
2023-01-26T11:29:57.131Z,102605.14
2023-01-26T11:32:48.378Z,102592.33
2023-01-26T11:35:35.430Z,102585.56
2023-01-26T11:38:09.562Z,102572.70
2023-01-26T11:41:00.276Z,102573.14
2023-01-26T11:43:38.931Z,102582.34
2023-01-26T11:46:28.116Z,102578.14
2023-01-26T11:49:20.212Z,102575.98
2023-01-26T11:52:01.451Z,102572.71
2023-01-26T11:55:04.034Z,102566.70
2023-01-26T11:57:45.669Z,102568.23
2023-01-26T12:00:29.414Z,102566.41
2023-01-26T12:02:56.951Z,102563.98
2023-01-26T12:05:30.243Z,102564.42
2023-01-26T12:08:02.923Z,102559.09
2023-01-26T12:10:35.414Z,102553.66
2023-01-26T12:13:16.943Z,102555.27
2023-01-26T12:15:52.265Z,102544.66
2023-01-26T12:18:42.161Z,102544.92
2023-01-26T12:21:06.144Z,102541.15
2023-01-26T12:23:39.242Z,102536.42
2023-01-26T12:26:18.226Z,102537.13
2023-01-26T12:29:18.130Z,102536.91
2023-01-26T12:31:50.722Z,102536.34
2023-01-26T12:34:23.554Z,102530.19
2023-01-26T12:37:18.625Z,102520.80
2023-01-26T12:40:21.094Z,102522.90
2023-01-26T12:43:02.391Z,102518.25
2023-01-26T12:45:35.247Z,102512.27
2023-01-26T12:48:23.175Z,102511.34
2023-01-26T12:50:55.999Z,102511.02
2023-01-26T12:53:32.408Z,102501.04
2023-01-26T12:56:14.020Z,102504.34
2023-01-26T12:58:46.694Z,102488.56
2023-01-26T13:01:22.145Z,102488.23
2023-01-26T13:04:00.968Z,102486.48
2023-01-26T13:06:31.285Z,102480.48
2023-01-26T13:09:22.367Z,102490.64
2023-01-26T13:11:59.881Z,102490.07
2023-01-26T13:14:38.431Z,102486.05
2023-01-26T13:17:20.498Z,102483.48
2023-01-26T13:19:53.325Z,102480.14
2023-01-26T13:22:30.588Z,102488.98
2023-01-26T13:25:19.509Z,102482.48
2023-01-26T13:27:52.361Z,102480.53
2023-01-26T13:30:30.833Z,102484.09
2023-01-26T13:33:24.504Z,102483.23
2023-01-26T13:35:56.466Z,102484.69
2023-01-26T13:38:31.723Z,102485.00
2023-01-26T13:41:02.864Z,102481.53
2023-01-26T13:43:44.716Z,102481.53
2023-01-26T13:46:33.709Z,102474.55
2023-01-26T13:49:03.237Z,102472.65
2023-01-26T13:51:35.918Z,102478.22
2023-01-26T13:54:17.859Z,102481.30
2023-01-26T13:57:07.532Z,102482.81
2023-01-26T13:59:51.503Z,102482.28
2023-01-26T14:02:35.864Z,102488.03
2023-01-26T14:05:08.533Z,102480.41
2023-01-26T14:07:43.573Z,102479.81
2023-01-26T14:10:23.270Z,102485.10
2023-01-26T14:12:57.213Z,102486.32
2023-01-26T14:15:29.932Z,102488.89
2023-01-26T14:18:05.275Z,102491.39
2023-01-26T14:20:37.947Z,102484.94
2023-01-26T14:23:19.109Z,102486.11
2023-01-26T14:25:51.947Z,102483.35
2023-01-26T14:28:24.138Z,102473.39
2023-01-26T14:30:59.898Z,102481.08
2023-01-26T14:33:30.878Z,102482.13
2023-01-26T14:36:02.895Z,102474.97
2023-01-26T14:38:44.570Z,102485.81
2023-01-26T14:41:34.360Z,102490.19
2023-01-26T14:44:07.339Z,102486.22
2023-01-26T14:46:40.513Z,102483.28
2023-01-26T14:49:15.862Z,102483.28
2023-01-26T14:51:47.768Z,102484.91
2023-01-26T14:54:23.636Z,102487.92
2023-01-26T14:56:53.484Z,102488.02
2023-01-26T14:59:26.547Z,102488.73
2023-01-26T15:02:25.596Z,102488.41
2023-01-26T15:04:58.350Z,102494.16
2023-01-26T15:07:45.844Z,102497.60
2023-01-26T15:10:41.155Z,102496.87
2023-01-26T15:13:19.793Z,102494.93
2023-01-26T15:16:03.890Z,102489.67
2023-01-26T15:18:34.848Z,102496.70
2023-01-26T15:21:23.768Z,102499.45
2023-01-26T15:23:56.287Z,102499.45
2023-01-26T15:26:32.003Z,102495.28
2023-01-26T15:29:07.634Z,102508.30
2023-01-26T15:31:39.989Z,102502.88
2023-01-26T15:34:36.728Z,102506.91
2023-01-26T15:37:25.979Z,102504.27
2023-01-26T15:43:59.582Z,102498.29
2023-01-26T15:46:29.261Z,102498.29
2023-01-26T15:48:59.151Z,102495.91
2023-01-26T15:51:29.095Z,102494.88
2023-01-26T15:53:58.900Z,102494.88
2023-01-26T15:56:28.662Z,102490.28
2023-01-26T15:58:58.963Z,102492.53
2023-01-26T16:01:30.326Z,102492.53
2023-01-26T16:04:00.156Z,102494.83
2023-01-26T16:06:32.773Z,102499.09
2023-01-26T16:09:02.556Z,102499.59
2023-01-26T16:11:35.491Z,102504.72
2023-01-26T16:14:08.261Z,102504.21
2023-01-26T16:16:38.225Z,102503.20
2023-01-26T16:19:08.865Z,102507.66
2023-01-26T16:21:41.123Z,102506.60
2023-01-26T16:24:12.171Z,102509.47
2023-01-26T16:26:41.960Z,102521.25
2023-01-26T16:29:11.487Z,102516.84
2023-01-26T16:31:41.369Z,102522.70
2023-01-26T16:34:11.731Z,102520.01
2023-01-26T16:36:41.487Z,102520.35
2023-01-26T16:39:11.355Z,102523.48
2023-01-26T16:41:41.105Z,102522.56
2023-01-26T16:44:17.374Z,102522.56
2023-01-26T16:46:47.137Z,102524.50
2023-01-26T16:49:17.432Z,102531.30
2023-01-26T16:51:47.442Z,102529.28
2023-01-26T16:54:17.181Z,102528.08
2023-01-26T16:56:46.994Z,102527.63
2023-01-26T16:59:17.056Z,102522.59
2023-01-26T17:01:46.733Z,102531.94
2023-01-26T17:04:16.319Z,102525.41
2023-01-26T17:06:46.149Z,102529.52
2023-01-26T17:09:16.212Z,102525.86
2023-01-26T17:11:46.088Z,102528.48
2023-01-26T17:14:16.405Z,102532.84
2023-01-26T17:16:46.314Z,102538.17
2023-01-26T17:19:16.505Z,102542.03
2023-01-26T17:21:46.336Z,102542.55
2023-01-26T17:24:15.958Z,102536.77
2023-01-26T17:26:45.846Z,102537.97
2023-01-26T17:29:15.658Z,102534.87
2023-01-26T17:31:45.594Z,102541.70
2023-01-26T17:34:16.461Z,102535.39
2023-01-26T17:36:46.364Z,102535.05
2023-01-26T17:39:17.879Z,102526.98
2023-01-26T17:41:47.719Z,102532.20
2023-01-26T17:44:17.560Z,102525.62
2023-01-26T17:46:47.498Z,102529.78
2023-01-26T17:49:17.428Z,102539.06
2023-01-26T17:51:47.697Z,102531.05
2023-01-26T17:54:18.066Z,102533.71
2023-01-26T17:56:47.831Z,102537.91
2023-01-26T17:59:17.696Z,102540.61
2023-01-26T18:01:47.555Z,102537.63
2023-01-26T18:04:17.356Z,102527.12
2023-01-26T18:06:46.890Z,102538.92
2023-01-26T18:09:16.705Z,102535.27
2023-01-26T18:11:46.497Z,102538.22
2023-01-26T18:14:16.137Z,102526.66
2023-01-26T18:16:45.979Z,102531.73
2023-01-26T18:19:15.773Z,102528.07
2023-01-26T18:21:45.524Z,102532.79
2023-01-26T18:24:15.030Z,102526.12
2023-01-26T18:26:45.082Z,102526.30
2023-01-26T18:29:16.755Z,102528.26
2023-01-26T18:31:47.969Z,102520.58
2023-01-26T18:34:17.850Z,102520.06
2023-01-26T18:36:47.643Z,102524.06
2023-01-26T18:39:17.524Z,102522.89
2023-01-26T18:41:47.450Z,102520.96
2023-01-26T18:44:18.339Z,102527.56
2023-01-26T18:46:48.084Z,102529.98
2023-01-26T18:49:18.409Z,102523.83
2023-01-26T18:51:52.150Z,102530.19
2023-01-26T18:54:21.975Z,102528.76
2023-01-26T18:56:51.788Z,102530.43
2023-01-26T18:59:21.545Z,102534.70
2023-01-26T19:01:51.436Z,102532.20
2023-01-26T19:04:21.225Z,102529.32
2023-01-26T19:06:51.141Z,102529.32
2023-01-26T19:09:21.344Z,102525.40
2023-01-26T19:11:52.889Z,102530.99
2023-01-26T19:14:23.198Z,102526.07
2023-01-26T19:16:53.109Z,102523.06
2023-01-26T19:19:23.135Z,102532.05
2023-01-26T19:21:53.044Z,102532.05
2023-01-26T19:24:23.054Z,102534.56
2023-01-26T19:26:52.920Z,102535.59
2023-01-26T19:29:22.985Z,102537.56
2023-01-26T19:31:52.828Z,102536.62
2023-01-26T19:34:23.043Z,102538.69
2023-01-26T19:36:52.882Z,102531.20
2023-01-26T19:39:22.709Z,102540.05
2023-01-26T19:41:52.486Z,102538.09
2023-01-26T19:44:22.195Z,102542.22
2023-01-26T19:46:53.595Z,102529.58
2023-01-26T19:49:23.435Z,102536.55
2023-01-26T19:51:53.895Z,102537.23
2023-01-26T19:54:23.396Z,102535.19
2023-01-26T19:56:53.165Z,102542.52
2023-01-26T19:59:22.923Z,102539.53
2023-01-26T20:01:52.671Z,102545.18
2023-01-26T20:04:22.200Z,102540.28
2023-01-26T20:06:52.020Z,102548.75
2023-01-26T20:09:21.799Z,102542.49
2023-01-26T20:11:52.545Z,102541.48
2023-01-26T20:14:22.659Z,102536.55
2023-01-26T20:16:52.357Z,102536.09
2023-01-26T20:19:22.132Z,102537.42
2023-01-26T20:21:51.908Z,102539.63
2023-01-26T20:24:22.224Z,102542.86
2023-01-26T20:26:53.093Z,102539.23
2023-01-26T20:29:23.181Z,102540.66
2023-01-26T20:31:53.261Z,102540.66
2023-01-26T20:34:23.197Z,102541.42
2023-01-26T20:36:54.648Z,102543.05
2023-01-26T20:39:25.228Z,102540.30
2023-01-26T20:41:55.815Z,102539.41
2023-01-26T20:44:25.511Z,102550.57
2023-01-26T20:46:55.571Z,102549.18
2023-01-26T20:49:25.468Z,102546.43
2023-01-26T20:51:55.231Z,102549.41
2023-01-26T20:54:25.247Z,102543.53
2023-01-26T20:56:55.034Z,102546.22
2023-01-26T20:59:24.809Z,102549.14
2023-01-26T21:01:54.331Z,102549.39
2023-01-26T21:04:24.113Z,102556.35
2023-01-26T21:06:55.256Z,102545.49
2023-01-26T21:09:25.308Z,102542.84
2023-01-26T21:11:55.084Z,102533.83
2023-01-26T21:14:24.552Z,102544.25
2023-01-26T21:16:55.708Z,102535.64
2023-01-26T21:19:25.637Z,102537.86
2023-01-26T21:21:55.444Z,102542.01
2023-01-26T21:24:25.231Z,102541.16
2023-01-26T21:26:54.968Z,102536.52
2023-01-26T21:29:24.800Z,102544.22
2023-01-26T21:31:54.707Z,102543.33
2023-01-26T21:34:24.385Z,102533.62
2023-01-26T21:36:54.204Z,102531.06
2023-01-26T21:39:23.982Z,102540.37
2023-01-26T21:41:56.722Z,102534.80
2023-01-26T21:44:28.315Z,102534.83
2023-01-26T21:47:00.558Z,102534.83
2023-01-26T21:49:31.308Z,102533.30
2023-01-26T21:52:18.684Z,102530.73
2023-01-26T21:54:48.751Z,102530.73
2023-01-26T21:57:36.264Z,102527.00
2023-01-26T22:00:07.432Z,102534.73
2023-01-26T22:02:37.266Z,102527.38
2023-01-26T22:05:08.798Z,102520.06
2023-01-26T22:07:38.576Z,102524.71
2023-01-26T22:10:11.151Z,102524.97
2023-01-26T22:12:41.109Z,102518.05
2023-01-26T22:15:11.382Z,102525.21
2023-01-26T22:17:41.442Z,102530.45
2023-01-26T22:20:13.340Z,102531.26
2023-01-26T22:22:43.447Z,102530.02
2023-01-26T22:25:13.381Z,102529.20
2023-01-26T22:27:43.310Z,102528.16
2023-01-26T22:30:15.880Z,102527.44
2023-01-26T22:32:45.747Z,102527.44
2023-01-26T22:35:16.578Z,102531.67
2023-01-26T22:37:46.421Z,102535.94
2023-01-26T22:40:16.456Z,102534.38
2023-01-26T22:42:46.210Z,102533.72
2023-01-26T22:45:15.849Z,102537.75
2023-01-26T22:47:46.308Z,102536.30
2023-01-26T22:50:18.268Z,102539.13
2023-01-26T22:52:48.196Z,102540.91
2023-01-26T22:55:17.964Z,102537.36
2023-01-26T22:57:47.736Z,102539.88
2023-01-26T23:00:17.784Z,102539.19
2023-01-26T23:02:47.715Z,102540.86
2023-01-26T23:05:17.930Z,102544.87
2023-01-26T23:07:47.669Z,102543.65
2023-01-26T23:10:17.383Z,102551.27
2023-01-26T23:12:47.127Z,102555.67
2023-01-26T23:15:16.993Z,102552.37
2023-01-26T23:17:48.046Z,102554.48
2023-01-26T23:20:19.758Z,102551.20
2023-01-26T23:22:49.745Z,102551.03
2023-01-26T23:25:36.850Z,102549.69
2023-01-26T23:28:08.402Z,102548.00
2023-01-26T23:30:38.224Z,102547.84
2023-01-26T23:33:08.030Z,102551.05
2023-01-26T23:35:38.747Z,102546.95
2023-01-26T23:38:09.523Z,102549.25
2023-01-26T23:40:39.834Z,102552.47
2023-01-26T23:43:16.503Z,102555.31
2023-01-26T23:45:43.282Z,102558.19
2023-01-26T23:48:13.352Z,102560.83
2023-01-26T23:50:43.794Z,102559.30
2023-01-26T23:53:13.831Z,102552.92
2023-01-26T23:55:44.267Z,102549.61
2023-01-26T23:58:14.014Z,102542.36
